createdAt,value
2018-12-23T00:43:04.642Z,9.53
2018-12-23T02:26:17.750Z,6.03
2018-12-23T06:14:31.028Z,12.07
2018-12-23T07:30:00.016Z,9.23
2018-12-23T08:06:01.445Z,10.10
2018-12-23T08:14:36.185Z,6.57
2018-12-23T08:17:04.428Z,7.07
2018-12-23T08:55:53.972Z,6.27
2018-12-23T10:07:40.522Z,5.77
2018-12-23T10:25:48.693Z,6.47
2018-12-23T10:28:24.896Z,3.50
2018-12-23T10:30:53.255Z,7.37
2018-12-23T10:33:21.686Z,6.37
2018-12-23T10:35:50.032Z,3.57
2018-12-23T10:38:18.675Z,3.13
2018-12-23T10:40:47.109Z,3.17
2018-12-23T10:43:15.426Z,4.17
2018-12-23T11:36:54.081Z,10.00
2018-12-23T11:39:22.463Z,6.67
2018-12-23T11:41:50.794Z,7.80
2018-12-23T11:44:19.151Z,3.97
2018-12-23T11:46:47.506Z,7.23
2018-12-23T11:49:15.880Z,4.80
2018-12-23T11:51:44.192Z,4.10
2018-12-23T11:54:12.551Z,6.50
2018-12-23T11:56:40.905Z,5.47
2018-12-23T11:59:09.247Z,4.67
2018-12-23T12:01:37.590Z,8.70
2018-12-23T12:04:05.950Z,7.67
2018-12-23T12:06:34.307Z,7.17
2018-12-23T12:09:06.920Z,5.67
2018-12-23T12:11:33.269Z,6.57
2018-12-23T12:14:01.599Z,8.40
2018-12-23T12:16:29.981Z,5.07
2018-12-23T12:18:58.318Z,3.67
2018-12-23T12:21:26.650Z,4.13
2018-12-23T12:23:54.988Z,4.90
2018-12-23T12:26:23.332Z,5.17
2018-12-23T12:28:51.795Z,4.67
2018-12-23T12:31:20.103Z,3.83
2018-12-23T12:33:48.441Z,4.33
2018-12-23T12:36:16.814Z,3.47
2018-12-23T12:38:52.144Z,5.87
2018-12-23T12:41:15.467Z,6.13
2018-12-23T12:43:43.927Z,5.47
2018-12-23T12:46:12.275Z,4.63
2018-12-23T12:48:40.631Z,5.50
2018-12-23T12:51:09.861Z,7.17
2018-12-23T12:53:38.178Z,7.83
2018-12-23T12:56:06.553Z,6.43
2018-12-23T12:58:34.894Z,5.73
2018-12-23T13:01:03.311Z,6.50
2018-12-23T13:03:31.639Z,8.23
2018-12-23T13:05:59.955Z,6.13
2018-12-23T13:08:28.327Z,6.27
2018-12-23T13:10:56.663Z,6.77
2018-12-23T13:13:25.841Z,5.23
2018-12-23T13:15:54.201Z,5.67
2018-12-23T13:21:40.435Z,8.03
2018-12-23T13:24:13.269Z,5.33
2018-12-23T13:26:43.515Z,14.23
2018-12-23T13:29:16.477Z,10.13
2018-12-23T13:32:03.583Z,26.73
2018-12-23T13:34:37.711Z,11.50
2018-12-23T13:37:06.109Z,8.40
2018-12-23T15:40:36.710Z,2.20
2018-12-23T16:07:16.911Z,2.00
2018-12-23T16:18:55.571Z,1.93
2018-12-23T16:21:23.888Z,3.13
2018-12-23T16:23:52.157Z,1.60
2018-12-23T16:26:27.006Z,1.80
2018-12-23T17:15:02.969Z,1.87
2018-12-23T17:17:38.167Z,2.70
2018-12-23T17:44:54.731Z,2.13
2018-12-23T17:47:35.925Z,1.87
2018-12-23T17:53:21.006Z,3.00
2018-12-23T18:20:14.983Z,2.33
2018-12-23T18:22:43.287Z,6.77
2018-12-23T18:25:11.695Z,6.40
2018-12-23T18:27:40.042Z,7.37
2018-12-23T22:01:29.465Z,0.60
2018-12-23T22:07:24.082Z,0.53
2018-12-23T22:10:13.532Z,0.60
2018-12-23T22:13:19.797Z,0.50
2018-12-23T22:15:48.078Z,2.80
2018-12-23T22:18:41.897Z,0.60
2018-12-23T22:21:25.249Z,0.50
2018-12-23T22:24:06.792Z,0.60
2018-12-23T22:26:58.918Z,0.47
2018-12-23T22:29:39.797Z,0.80
2018-12-23T22:32:21.260Z,0.70
2018-12-23T22:35:15.766Z,0.87
2018-12-23T22:38:13.988Z,0.80
2018-12-23T22:41:06.047Z,1.03
2018-12-23T22:43:37.636Z,0.70
2018-12-23T22:46:27.372Z,1.00
2018-12-23T22:49:18.822Z,0.60
2018-12-23T22:52:03.684Z,1.00
2018-12-23T22:54:44.692Z,1.03
2018-12-23T22:57:26.241Z,1.00
2018-12-23T23:00:07.049Z,1.00
2018-12-23T23:02:51.977Z,1.57
2018-12-23T23:05:35.315Z,1.10
2018-12-23T23:08:19.958Z,1.87
2018-12-23T23:11:11.936Z,0.90
2018-12-23T23:13:40.183Z,1.23
2018-12-23T23:16:21.332Z,1.60
2018-12-23T23:18:49.590Z,1.37
2018-12-23T23:21:30.333Z,1.73
2018-12-23T23:24:13.662Z,2.50
2018-12-23T23:26:55.189Z,2.10
2018-12-23T23:29:38.545Z,2.10
2018-12-23T23:32:30.664Z,2.47
2018-12-23T23:35:15.447Z,2.17
2018-12-23T23:37:58.916Z,2.73
2018-12-23T23:40:40.484Z,2.40
2018-12-23T23:43:34.933Z,2.20
2018-12-23T23:46:15.537Z,1.87
2018-12-23T23:48:57.068Z,1.60
2018-12-23T23:51:40.505Z,2.63
2018-12-23T23:54:25.049Z,2.53
2018-12-23T23:57:06.579Z,2.17
2018-12-23T23:59:58.642Z,2.07
